Time;durP1;ratioP1;P1;durP2;ratioP2;P2;SDS_P1;SDS_P2;PMS_P1;PMS_P2;Temp;Humidity;BMP_temperature;BMP_pressure;BME280_temperature;BME280_humidity;BME280_pressure;Samples;Min_cycle;Max_cycle;Signal;HPM_P1;HPM_P2
2024/02/12 00:00:19;;;;;;;4.82;3.50;;;;;;;;;;5071450;28;20043;-61
2024/02/12 00:02:45;;;;;;;5.43;3.50;;;;;;;;;;5070607;28;20020;-61
2024/02/12 00:05:12;;;;;;;6.20;3.42;;;;;;;;;;5071342;28;20028;-61
2024/02/12 00:07:39;;;;;;;5.38;3.55;;;;;;;;;;5071669;28;20025;-61
2024/02/12 00:10:05;;;;;;;8.65;3.67;;;;;;;;;;5070653;28;20035;-61
2024/02/12 00:12:34;;;;;;;8.55;3.28;;;;;;;;;;5071047;28;20033;-61
2024/02/12 00:15:00;;;;;;;6.88;3.80;;;;;;;;;;5066644;28;20024;-61
2024/02/12 00:17:29;;;;;;;3.83;2.83;;;;;;;;;;5070186;28;20040;-60
2024/02/12 00:19:55;;;;;;;6.13;3.72;;;;;;;;;;5082379;28;20040;-59
2024/02/12 00:22:23;;;;;;;6.60;3.88;;;;;;;;;;5070144;28;20033;-59
2024/02/12 00:24:49;;;;;;;4.95;3.35;;;;;;;;;;5071359;28;20460;-60
2024/02/12 00:27:16;;;;;;;9.35;3.45;;;;;;;;;;5070427;28;20029;-60
2024/02/12 00:29:42;;;;;;;5.35;3.30;;;;;;;;;;5070082;28;20028;-60
2024/02/12 00:32:10;;;;;;;4.68;3.35;;;;;;;;;;5070759;28;20054;-60
2024/02/12 00:34:36;;;;;;;6.53;3.42;;;;;;;;;;5070116;28;20031;-59
2024/02/12 00:37:02;;;;;;;5.68;3.30;;;;;;;;;;5071820;28;20025;-60
2024/02/12 00:39:30;;;;;;;7.22;3.85;;;;;;;;;;5074884;28;20078;-60
2024/02/12 00:41:57;;;;;;;4.50;3.30;;;;;;;;;;5075692;28;20024;-60
2024/02/12 00:44:23;;;;;;;6.38;4.03;;;;;;;;;;5073056;28;20433;-60
2024/02/12 00:46:54;;;;;;;4.90;3.05;;;;;;;;;;5071913;28;20033;-60
2024/02/12 00:49:20;;;;;;;5.50;3.30;;;;;;;;;;5074060;28;20039;-60
2024/02/12 00:51:46;;;;;;;6.03;3.83;;;;;;;;;;5075473;28;20024;-60
2024/02/12 00:54:14;;;;;;;6.55;3.40;;;;;;;;;;5074345;28;20036;-60
2024/02/12 00:56:44;;;;;;;4.82;3.40;;;;;;;;;;5074554;28;20365;-60
2024/02/12 00:59:11;;;;;;;5.28;3.22;;;;;;;;;;5074915;28;20108;-59
2024/02/12 01:01:38;;;;;;;5.82;3.78;;;;;;;;;;5068418;28;20024;-60
2024/02/12 01:04:05;;;;;;;9.45;3.40;;;;;;;;;;5071164;28;20020;-60
2024/02/12 01:06:31;;;;;;;5.10;3.55;;;;;;;;;;5075222;28;20033;-60
2024/02/12 01:08:57;;;;;;;5.68;3.47;;;;;;;;;;5074309;28;20024;-60
2024/02/12 01:11:23;;;;;;;6.18;3.80;;;;;;;;;;5074363;28;20025;-59
2024/02/12 01:13:49;;;;;;;7.15;3.83;;;;;;;;;;5074715;28;20028;-60
2024/02/12 01:16:18;;;;;;;5.88;3.78;;;;;;;;;;5074432;28;20446;-59
2024/02/12 01:18:44;;;;;;;6.60;3.97;;;;;;;;;;5074024;28;20082;-59
2024/02/12 01:21:10;;;;;;;5.43;3.58;;;;;;;;;;5071768;28;20032;-60
2024/02/12 01:23:36;;;;;;;5.50;4.05;;;;;;;;;;5071437;28;20033;-60
2024/02/12 01:26:02;;;;;;;8.50;5.07;;;;;;;;;;5078220;28;20531;-59
2024/02/12 01:28:28;;;;;;;5.72;4.15;;;;;;;;;;5074892;28;20031;-61
2024/02/12 01:30:54;;;;;;;7.68;4.57;;;;;;;;;;5074280;28;20028;-61
2024/02/12 01:33:20;;;;;;;5.70;4.35;;;;;;;;;;5073766;28;20028;-61
2024/02/12 01:35:48;;;;;;;7.22;4.25;;;;;;;;;;5073561;28;20040;-61
2024/02/12 01:38:14;;;;;;;6.80;4.60;;;;;;;;;;5071517;28;20017;-61
2024/02/12 01:40:40;;;;;;;8.73;4.82;;;;;;;;;;5073682;28;20025;-61
2024/02/12 01:43:07;;;;;;;9.57;4.93;;;;;;;;;;5074200;28;20029;-61
2024/02/12 01:45:34;;;;;;;7.90;5.25;;;;;;;;;;5073657;28;20083;-61
2024/02/12 01:48:01;;;;;;;7.80;4.90;;;;;;;;;;5072862;28;20039;-60
2024/02/12 01:50:28;;;;;;;8.80;5.03;;;;;;;;;;5074147;28;20060;-61
2024/02/12 01:52:54;;;;;;;8.55;5.25;;;;;;;;;;5074260;28;20021;-61
2024/02/12 01:55:21;;;;;;;6.95;5.03;;;;;;;;;;5071936;28;20520;-61
2024/02/12 01:57:47;;;;;;;7.45;4.80;;;;;;;;;;5073884;28;20029;-61
2024/02/12 02:00:19;;;;;;;9.70;5.38;;;;;;;;;;5073424;28;20484;-60
2024/02/12 02:02:46;;;;;;;8.20;5.00;;;;;;;;;;5081870;28;20460;-60
2024/02/12 02:05:13;;;;;;;8.60;4.85;;;;;;;;;;5074170;28;20037;-60
2024/02/12 02:07:39;;;;;;;8.85;4.95;;;;;;;;;;5073768;28;20549;-60
2024/02/12 02:10:09;;;;;;;6.63;4.90;;;;;;;;;;5073899;28;20086;-60
2024/02/12 02:12:36;;;;;;;8.48;5.05;;;;;;;;;;5072527;28;20059;-60
2024/02/12 02:15:02;;;;;;;10.63;5.70;;;;;;;;;;5078034;28;20040;-60
2024/02/12 02:17:28;;;;;;;9.05;5.72;;;;;;;;;;5072846;28;20124;-60
2024/02/12 02:19:54;;;;;;;8.35;5.28;;;;;;;;;;5073416;28;20024;-59
2024/02/12 02:22:21;;;;;;;9.30;5.85;;;;;;;;;;5072782;28;20020;-60
2024/02/12 02:24:48;;;;;;;9.38;5.63;;;;;;;;;;5073656;28;20534;-60
2024/02/12 02:27:14;;;;;;;7.78;5.05;;;;;;;;;;5073071;28;20028;-60
2024/02/12 02:29:40;;;;;;;10.68;6.05;;;;;;;;;;5067215;28;20098;-61
2024/02/12 02:32:06;;;;;;;8.98;5.22;;;;;;;;;;5066725;28;20024;-60
2024/02/12 02:34:32;;;;;;;7.93;4.95;;;;;;;;;;5072410;28;20411;-60
2024/02/12 02:37:00;;;;;;;11.85;5.78;;;;;;;;;;5073414;28;20040;-60
2024/02/12 02:39:26;;;;;;;10.60;5.72;;;;;;;;;;5072910;28;20036;-59
2024/02/12 02:41:52;;;;;;;12.40;6.30;;;;;;;;;;5073287;28;20110;-60
2024/02/12 02:44:18;;;;;;;10.45;6.43;;;;;;;;;;5070933;28;20464;-60
2024/02/12 02:46:46;;;;;;;9.45;6.00;;;;;;;;;;5073006;28;20048;-60
2024/02/12 02:49:14;;;;;;;12.88;6.30;;;;;;;;;;5070925;28;20048;-60
2024/02/12 02:51:40;;;;;;;10.50;6.35;;;;;;;;;;5072944;28;20028;-60
2024/02/12 02:54:08;;;;;;;12.32;6.63;;;;;;;;;;5072800;28;20028;-60
2024/02/12 02:56:34;;;;;;;13.43;6.85;;;;;;;;;;5073531;28;20032;-60
2024/02/12 02:59:00;;;;;;;15.48;6.88;;;;;;;;;;5073052;28;20024;-60
2024/02/12 03:01:28;;;;;;;11.93;6.63;;;;;;;;;;5071438;28;20029;-59
2024/02/12 03:03:55;;;;;;;14.02;6.97;;;;;;;;;;5072259;28;20023;-59
2024/02/12 03:06:23;;;;;;;12.57;6.65;;;;;;;;;;5064922;28;20499;-57
2024/02/12 03:08:49;;;;;;;13.10;7.10;;;;;;;;;;5072237;28;20024;-58
2024/02/12 03:11:25;;;;;;;11.32;7.45;;;;;;;;;;5072417;28;20102;-57
2024/02/12 03:13:51;;;;;;;13.23;6.93;;;;;;;;;;5071464;28;20510;-57
2024/02/12 03:16:17;;;;;;;12.70;6.95;;;;;;;;;;5072365;28;20041;-57
2024/02/12 03:18:45;;;;;;;11.93;7.53;;;;;;;;;;5071738;28;20111;-57
2024/02/12 03:21:12;;;;;;;14.52;7.50;;;;;;;;;;5071262;28;20020;-58
2024/02/12 03:23:38;;;;;;;13.10;7.75;;;;;;;;;;5071290;28;20513;-58
2024/02/12 03:26:07;;;;;;;14.82;7.97;;;;;;;;;;5072541;28;20119;-57
2024/02/12 03:28:35;;;;;;;13.65;8.70;;;;;;;;;;5071864;28;20077;-58
2024/02/12 03:31:01;;;;;;;15.75;8.77;;;;;;;;;;5072080;28;20033;-58
2024/02/12 03:33:27;;;;;;;16.65;8.10;;;;;;;;;;5071899;28;20032;-57
2024/02/12 03:35:53;;;;;;;19.35;9.02;;;;;;;;;;5071509;28;20025;-59
2024/02/12 03:38:19;;;;;;;15.68;8.55;;;;;;;;;;5071192;28;20464;-58
2024/02/12 03:40:44;;;;;;;15.90;8.88;;;;;;;;;;5070954;28;20077;-57
2024/02/12 03:43:11;;;;;;;16.42;9.05;;;;;;;;;;5071099;28;20566;-58
2024/02/12 03:45:37;;;;;;;16.65;9.23;;;;;;;;;;5072055;28;20483;-57
2024/02/12 03:59:50;;;;;;;16.38;8.80;;;;;;;;;;5067357;28;20021;-59
2024/02/12 04:01:54;;;;;;;17.10;8.80;;;;;;;;;;5071495;28;20043;-58
2024/02/12 04:04:20;;;;;;;20.48;9.95;;;;;;;;;;5071077;28;20373;-58
2024/02/12 04:06:46;;;;;;;26.05;9.82;;;;;;;;;;5068603;28;20050;-57
2024/02/12 04:09:12;;;;;;;22.48;10.48;;;;;;;;;;5069763;28;20395;-58
2024/02/12 04:11:41;;;;;;;19.88;9.90;;;;;;;;;;5071880;28;20032;-57
2024/02/12 04:14:09;;;;;;;19.15;9.57;;;;;;;;;;5064588;28;20027;-58
2024/02/12 04:16:36;;;;;;;21.52;10.95;;;;;;;;;;5071325;28;20036;-58
2024/02/12 04:19:03;;;;;;;19.35;10.10;;;;;;;;;;5071629;28;20032;-57
2024/02/12 04:21:31;;;;;;;22.15;9.95;;;;;;;;;;5071381;28;20469;-57
2024/02/12 04:23:57;;;;;;;22.48;10.07;;;;;;;;;;5068201;28;20039;-57
2024/02/12 04:26:24;;;;;;;23.80;10.63;;;;;;;;;;5059666;28;20078;-58
2024/02/12 04:28:50;;;;;;;26.15;10.90;;;;;;;;;;5071514;28;20037;-57
2024/02/12 04:31:16;;;;;;;26.88;11.75;;;;;;;;;;5069489;28;20037;-57
2024/02/12 04:33:43;;;;;;;27.35;12.35;;;;;;;;;;5071335;28;20044;-57
2024/02/12 04:36:10;;;;;;;24.73;12.10;;;;;;;;;;5071287;28;20028;-58
2024/02/12 04:38:36;;;;;;;22.77;11.35;;;;;;;;;;5070336;28;20036;-57
2024/02/12 04:41:05;;;;;;;26.15;11.52;;;;;;;;;;5072904;28;20035;-57
2024/02/12 04:43:31;;;;;;;35.83;12.68;;;;;;;;;;5072877;28;20028;-58
2024/02/12 04:45:57;;;;;;;26.83;11.98;;;;;;;;;;5080941;28;20536;-58
2024/02/12 04:48:23;;;;;;;28.67;13.15;;;;;;;;;;5069672;28;20032;-58
2024/02/12 04:50:49;;;;;;;24.00;11.82;;;;;;;;;;5072534;28;20040;-58
2024/02/12 04:53:15;;;;;;;28.73;11.20;;;;;;;;;;5079886;28;20099;-58
2024/02/12 04:55:41;;;;;;;30.20;12.52;;;;;;;;;;5080477;28;20028;-59
2024/02/12 04:58:07;;;;;;;25.38;12.35;;;;;;;;;;5064825;28;20070;-58
2024/02/12 05:00:34;;;;;;;26.45;12.13;;;;;;;;;;5071356;28;20020;-57
2024/02/12 05:03:00;;;;;;;34.85;13.50;;;;;;;;;;5068329;28;20505;-58
2024/02/12 05:05:27;;;;;;;25.30;12.20;;;;;;;;;;5067688;28;20033;-57
2024/02/12 05:07:53;;;;;;;26.23;12.30;;;;;;;;;;5064606;28;20029;-58
2024/02/12 05:10:22;;;;;;;34.60;13.85;;;;;;;;;;5069905;28;20527;-57
2024/02/12 05:12:50;;;;;;;24.17;12.52;;;;;;;;;;5067177;28;20108;-58
2024/02/12 05:15:16;;;;;;;24.85;11.85;;;;;;;;;;5072616;28;20027;-58
2024/02/12 05:17:55;;;;;;;26.85;12.45;;;;;;;;;;5071897;28;20052;-58
2024/02/12 05:23:09;;;;;;;24.85;11.43;;;;;;;;;;5074143;28;20523;-58
2024/02/12 05:25:36;;;;;;;30.38;12.27;;;;;;;;;;5078068;28;20043;-58
2024/02/12 05:28:03;;;;;;;28.98;12.75;;;;;;;;;;5075280;28;20036;-62
2024/02/12 05:30:29;;;;;;;23.02;11.20;;;;;;;;;;5069706;28;20028;-62
2024/02/12 05:32:55;;;;;;;30.05;10.90;;;;;;;;;;5083745;28;20063;-62
2024/02/12 05:35:21;;;;;;;23.88;11.57;;;;;;;;;;5072909;28;20101;-62
2024/02/12 05:37:47;;;;;;;28.70;11.38;;;;;;;;;;5070158;28;20029;-62
2024/02/12 05:40:13;;;;;;;24.08;10.38;;;;;;;;;;5073433;28;20025;-62
2024/02/12 05:42:39;;;;;;;23.38;10.52;;;;;;;;;;5074064;28;20074;-61
2024/02/12 05:45:06;;;;;;;27.63;12.00;;;;;;;;;;5067242;28;20434;-62
2024/02/12 05:47:32;;;;;;;24.20;10.93;;;;;;;;;;5069802;28;20077;-62
2024/02/12 05:49:58;;;;;;;26.08;11.52;;;;;;;;;;5078414;28;20031;-62
2024/02/12 05:52:24;;;;;;;25.65;10.15;;;;;;;;;;5072815;28;20442;-62
2024/02/12 05:54:51;;;;;;;24.88;10.95;;;;;;;;;;5077823;28;20024;-61
2024/02/12 05:57:17;;;;;;;23.25;10.63;;;;;;;;;;5073011;28;20113;-61
2024/02/12 05:59:43;;;;;;;22.85;9.90;;;;;;;;;;5070767;28;20021;-58
2024/02/12 06:02:09;;;;;;;22.90;11.32;;;;;;;;;;5075964;28;20515;-62
2024/02/12 06:04:35;;;;;;;25.25;10.88;;;;;;;;;;5071914;28;20032;-62
2024/02/12 06:07:01;;;;;;;29.45;10.65;;;;;;;;;;5073111;28;20515;-62
2024/02/12 06:09:28;;;;;;;25.70;10.73;;;;;;;;;;5085637;28;20107;-62
2024/02/12 06:11:54;;;;;;;24.33;10.95;;;;;;;;;;5073948;28;20121;-62
2024/02/12 06:14:20;;;;;;;22.83;9.95;;;;;;;;;;5070152;28;20025;-61
2024/02/12 06:16:49;;;;;;;22.98;10.00;;;;;;;;;;5064926;28;20044;-62
2024/02/12 06:19:15;;;;;;;22.98;10.70;;;;;;;;;;5071201;28;20108;-62
2024/02/12 06:21:45;;;;;;;20.88;9.73;;;;;;;;;;5064521;28;20481;-62
2024/02/12 06:24:11;;;;;;;24.55;9.60;;;;;;;;;;5081475;28;20059;-61
2024/02/12 06:26:38;;;;;;;23.33;10.77;;;;;;;;;;5076022;28;20024;-62
2024/02/12 06:29:04;;;;;;;23.27;10.40;;;;;;;;;;5088313;28;20028;-62
2024/02/12 06:31:31;;;;;;;22.50;10.43;;;;;;;;;;5073618;28;20032;-62
2024/02/12 06:33:58;;;;;;;25.33;9.88;;;;;;;;;;5080967;28;20028;-61
2024/02/12 06:36:24;;;;;;;25.85;9.63;;;;;;;;;;5073397;28;20039;-59
2024/02/12 06:38:50;;;;;;;22.65;9.40;;;;;;;;;;5070287;28;20021;-59
2024/02/12 06:41:16;;;;;;;22.73;9.07;;;;;;;;;;5072415;28;20029;-59
2024/02/12 06:43:42;;;;;;;17.58;8.55;;;;;;;;;;5071219;28;20074;-59
2024/02/12 06:46:08;;;;;;;23.42;8.65;;;;;;;;;;5072775;28;20024;-59
2024/02/12 06:48:34;;;;;;;18.42;8.85;;;;;;;;;;5072574;28;20043;-59
2024/02/12 06:51:08;;;;;;;21.67;8.68;;;;;;;;;;5062305;28;20050;-59
2024/02/12 06:53:34;;;;;;;25.10;9.27;;;;;;;;;;5072218;28;20104;-59
2024/02/12 06:56:02;;;;;;;23.15;9.52;;;;;;;;;;5072132;28;20051;-59
2024/02/12 06:58:29;;;;;;;21.42;9.25;;;;;;;;;;5072380;28;20028;-59
2024/02/12 07:00:57;;;;;;;21.90;9.60;;;;;;;;;;5072374;28;20028;-60
2024/02/12 07:03:23;;;;;;;21.17;8.07;;;;;;;;;;5072107;28;20021;-59
2024/02/12 07:05:50;;;;;;;22.80;9.85;;;;;;;;;;5071653;28;20042;-59
2024/02/12 07:08:18;;;;;;;18.83;8.60;;;;;;;;;;5070951;28;20057;-60
2024/02/12 07:10:44;;;;;;;20.60;8.48;;;;;;;;;;5066617;28;20054;-59
2024/02/12 07:13:10;;;;;;;22.65;8.57;;;;;;;;;;5070833;28;20448;-59
2024/02/12 07:15:36;;;;;;;19.65;7.93;;;;;;;;;;5074223;28;20103;-60
2024/02/12 07:18:02;;;;;;;23.30;8.77;;;;;;;;;;5077190;28;20042;-59
2024/02/12 07:20:28;;;;;;;21.52;8.43;;;;;;;;;;5081904;28;20047;-59
2024/02/12 07:22:54;;;;;;;22.08;9.27;;;;;;;;;;5085575;28;20024;-59
2024/02/12 07:25:20;;;;;;;19.13;8.48;;;;;;;;;;5081672;28;20424;-59
2024/02/12 07:27:47;;;;;;;19.52;8.25;;;;;;;;;;5060815;28;20032;-59
2024/02/12 07:30:14;;;;;;;18.67;8.35;;;;;;;;;;5065062;28;20460;-59
2024/02/12 07:32:40;;;;;;;16.40;7.70;;;;;;;;;;5071498;28;20103;-59
2024/02/12 07:35:09;;;;;;;19.80;8.77;;;;;;;;;;5078448;28;20501;-59
2024/02/12 07:37:41;;;;;;;21.30;8.65;;;;;;;;;;5074461;28;20028;-59
2024/02/12 07:40:10;;;;;;;21.10;8.88;;;;;;;;;;5071830;28;20025;-59
2024/02/12 07:42:40;;;;;;;18.08;8.13;;;;;;;;;;5072914;28;20632;-59
2024/02/12 07:45:10;;;;;;;19.58;8.20;;;;;;;;;;5079399;28;20020;-59
2024/02/12 07:47:36;;;;;;;27.27;9.07;;;;;;;;;;5071207;28;20032;-61
2024/02/12 07:50:06;;;;;;;19.60;7.75;;;;;;;;;;5071266;28;20036;-61
2024/02/12 07:52:32;;;;;;;20.83;8.82;;;;;;;;;;5071516;28;20036;-62
2024/02/12 07:55:00;;;;;;;21.45;8.93;;;;;;;;;;5071524;28;20036;-62
2024/02/12 07:57:26;;;;;;;16.70;8.05;;;;;;;;;;5073907;28;20028;-63
2024/02/12 07:59:52;;;;;;;19.08;8.38;;;;;;;;;;5077780;28;20500;-61
2024/02/12 08:02:18;;;;;;;14.52;7.60;;;;;;;;;;5071168;28;20058;-61
2024/02/12 08:04:44;;;;;;;16.98;8.10;;;;;;;;;;5070944;28;20029;-61
2024/02/12 08:07:10;;;;;;;17.15;7.53;;;;;;;;;;5071575;28;20499;-62
2024/02/12 08:09:37;;;;;;;20.25;9.07;;;;;;;;;;5071095;28;20032;-62
2024/02/12 08:12:05;;;;;;;18.10;7.97;;;;;;;;;;5070898;28;20069;-62
2024/02/12 08:14:36;;;;;;;17.30;8.20;;;;;;;;;;5071286;28;20025;-62
2024/02/12 08:17:04;;;;;;;20.52;7.82;;;;;;;;;;5062903;28;20424;-61
2024/02/12 08:19:30;;;;;;;16.17;7.80;;;;;;;;;;5071274;28;20024;-62
2024/02/12 08:21:56;;;;;;;24.40;8.38;;;;;;;;;;5071166;28;20555;-60
2024/02/12 08:24:22;;;;;;;20.40;7.95;;;;;;;;;;5070978;28;20036;-61
2024/02/12 08:26:49;;;;;;;17.58;7.75;;;;;;;;;;5071060;28;20471;-62
2024/02/12 08:29:15;;;;;;;19.38;8.85;;;;;;;;;;5070976;28;20432;-61
2024/02/12 08:31:41;;;;;;;18.10;7.13;;;;;;;;;;5070956;28;20040;-61
2024/02/12 08:34:08;;;;;;;16.63;7.82;;;;;;;;;;5070783;28;20441;-61
2024/02/12 08:36:34;;;;;;;15.95;7.93;;;;;;;;;;5071022;28;20027;-62
2024/02/12 08:39:00;;;;;;;20.50;8.05;;;;;;;;;;5075248;28;20468;-62
2024/02/12 08:41:26;;;;;;;17.67;8.65;;;;;;;;;;5070982;28;20040;-61
2024/02/12 08:43:53;;;;;;;20.63;9.00;;;;;;;;;;5065117;28;20124;-61
2024/02/12 08:46:19;;;;;;;20.48;8.18;;;;;;;;;;5071480;28;20563;-62
2024/02/12 08:48:45;;;;;;;15.10;7.00;;;;;;;;;;5070965;28;20438;-61
2024/02/12 08:51:11;;;;;;;15.68;7.50;;;;;;;;;;5066115;28;20028;-62
2024/02/12 08:53:43;;;;;;;15.02;7.55;;;;;;;;;;5064793;28;20035;-61
2024/02/12 08:56:11;;;;;;;17.95;6.88;;;;;;;;;;5070878;28;20025;-58
2024/02/12 08:58:38;;;;;;;20.75;7.32;;;;;;;;;;5071594;28;20029;-61
2024/02/12 09:01:04;;;;;;;14.60;7.13;;;;;;;;;;5074129;28;20020;-62
2024/02/12 09:03:30;;;;;;;18.90;7.90;;;;;;;;;;5074518;28;20025;-61
2024/02/12 09:05:56;;;;;;;16.10;7.35;;;;;;;;;;5074603;28;20044;-64
2024/02/12 09:08:22;;;;;;;15.35;7.22;;;;;;;;;;5074498;28;20714;-62
2024/02/12 09:10:48;;;;;;;10.90;6.45;;;;;;;;;;5074331;28;20024;-62
2024/02/12 09:13:14;;;;;;;14.85;7.47;;;;;;;;;;5074214;28;20082;-61
2024/02/12 09:15:40;;;;;;;14.50;6.90;;;;;;;;;;5071848;28;20048;-62
2024/02/12 09:18:05;;;;;;;17.75;7.15;;;;;;;;;;5073527;28;20044;-61
2024/02/12 09:20:31;;;;;;;13.13;6.20;;;;;;;;;;5074291;28;20028;-62
2024/02/12 09:22:59;;;;;;;14.48;7.28;;;;;;;;;;5076910;28;20033;-61
2024/02/12 09:25:25;;;;;;;14.82;7.25;;;;;;;;;;5074330;28;20100;-61
2024/02/12 09:27:51;;;;;;;12.82;6.97;;;;;;;;;;5078535;28;20082;-61
2024/02/12 09:30:17;;;;;;;15.43;6.20;;;;;;;;;;5074012;28;20020;-62
2024/02/12 09:32:43;;;;;;;11.27;5.88;;;;;;;;;;5069573;28;20515;-62
2024/02/12 09:35:10;;;;;;;13.25;6.82;;;;;;;;;;5074377;28;20024;-62
2024/02/12 09:37:37;;;;;;;14.77;6.45;;;;;;;;;;5071757;28;20032;-62
2024/02/12 09:40:05;;;;;;;14.60;6.47;;;;;;;;;;5062889;28;20050;-62
2024/02/12 09:42:33;;;;;;;13.68;5.55;;;;;;;;;;5073371;28;20371;-62
2024/02/12 09:45:00;;;;;;;12.63;6.30;;;;;;;;;;5074106;28;20029;-62
2024/02/12 09:47:31;;;;;;;11.05;5.90;;;;;;;;;;5073700;28;20081;-62
2024/02/12 09:49:58;;;;;;;12.02;5.38;;;;;;;;;;5081958;28;20061;-62
2024/02/12 09:52:26;;;;;;;11.35;5.53;;;;;;;;;;5071479;28;20055;-62
2024/02/12 09:54:53;;;;;;;11.77;5.57;;;;;;;;;;5073691;28;20496;-62
2024/02/12 09:57:19;;;;;;;11.48;5.00;;;;;;;;;;5072988;28;20115;-62
2024/02/12 09:59:45;;;;;;;10.73;5.25;;;;;;;;;;5073630;28;20047;-62
2024/02/12 10:02:12;;;;;;;10.45;5.53;;;;;;;;;;5073352;28;20128;-62
2024/02/12 10:04:39;;;;;;;12.40;5.40;;;;;;;;;;5073673;28;20028;-62
2024/02/12 10:07:05;;;;;;;13.02;5.57;;;;;;;;;;5073288;28;20021;-60
2024/02/12 10:09:31;;;;;;;11.90;5.30;;;;;;;;;;5072849;28;20051;-60
2024/02/12 10:12:04;;;;;;;11.77;5.57;;;;;;;;;;5073066;28;20028;-60
2024/02/12 10:14:31;;;;;;;12.13;5.50;;;;;;;;;;5073517;28;20028;-59
2024/02/12 10:16:57;;;;;;;9.88;5.47;;;;;;;;;;5073092;28;20040;-60
2024/02/12 10:19:23;;;;;;;14.57;5.90;;;;;;;;;;5073142;28;20024;-59
2024/02/12 10:21:54;;;;;;;9.95;5.30;;;;;;;;;;5073070;28;20029;-60
2024/02/12 10:24:20;;;;;;;10.80;6.05;;;;;;;;;;5073141;28;20024;-60
2024/02/12 10:26:49;;;;;;;12.05;5.65;;;;;;;;;;5073067;28;20032;-59
2024/02/12 10:29:15;;;;;;;12.52;6.45;;;;;;;;;;5073115;28;20032;-60
2024/02/12 10:31:42;;;;;;;11.02;6.03;;;;;;;;;;5077249;28;20063;-60
2024/02/12 10:34:10;;;;;;;12.73;6.05;;;;;;;;;;5077395;28;20028;-60
2024/02/12 10:36:36;;;;;;;13.15;6.97;;;;;;;;;;5070415;28;20032;-59
2024/02/12 10:39:03;;;;;;;14.93;6.70;;;;;;;;;;5070366;28;20050;-60
2024/02/12 10:41:31;;;;;;;14.55;6.85;;;;;;;;;;5066425;28;20033;-60
2024/02/12 10:43:57;;;;;;;13.93;7.05;;;;;;;;;;5077795;28;20032;-59
2024/02/12 10:46:24;;;;;;;14.57;6.25;;;;;;;;;;5080777;28;20035;-59
2024/02/12 10:48:52;;;;;;;15.75;7.82;;;;;;;;;;5071410;28;21107;-60
2024/02/12 10:51:19;;;;;;;13.07;6.88;;;;;;;;;;5070310;28;20033;-60
2024/02/12 10:53:45;;;;;;;12.40;6.68;;;;;;;;;;5074918;28;20108;-59
2024/02/12 10:56:12;;;;;;;12.30;6.97;;;;;;;;;;5072462;28;20040;-60
2024/02/12 10:58:44;;;;;;;17.65;6.35;;;;;;;;;;5072323;28;20468;-60
2024/02/12 11:01:14;;;;;;;14.52;6.18;;;;;;;;;;5080186;28;20028;-59
2024/02/12 11:03:41;;;;;;;10.38;5.68;;;;;;;;;;5074021;28;20020;-59
2024/02/12 11:06:14;;;;;;;15.13;6.25;;;;;;;;;;5072495;28;20024;-59
2024/02/12 11:08:41;;;;;;;10.45;5.65;;;;;;;;;;5072164;28;20094;-60
2024/02/12 11:11:15;;;;;;;13.07;5.93;;;;;;;;;;5076561;28;20024;-59
2024/02/12 11:13:44;;;;;;;11.82;5.25;;;;;;;;;;5071388;28;20560;-60
2024/02/12 11:16:22;;;;;;;11.25;5.28;;;;;;;;;;5070360;28;20076;-60
2024/02/12 11:18:58;;;;;;;9.75;5.25;;;;;;;;;;5072041;28;20028;-63
2024/02/12 11:21:28;;;;;;;10.35;5.40;;;;;;;;;;5071230;28;20020;-63
2024/02/12 11:24:03;;;;;;;11.73;5.65;;;;;;;;;;5071708;28;20095;-63
2024/02/12 11:26:33;;;;;;;9.93;4.68;;;;;;;;;;5071964;28;20031;-63
2024/02/12 11:29:05;;;;;;;8.70;5.07;;;;;;;;;;5071607;28;20021;-63
2024/02/12 11:31:33;;;;;;;9.23;4.97;;;;;;;;;;5072272;28;20019;-64
2024/02/12 11:33:59;;;;;;;9.25;5.25;;;;;;;;;;5077207;28;20700;-63
2024/02/12 11:36:27;;;;;;;9.88;4.88;;;;;;;;;;5075030;28;20025;-63
2024/02/12 11:38:53;;;;;;;12.05;5.63;;;;;;;;;;5069484;28;20656;-63
2024/02/12 11:41:19;;;;;;;13.52;5.38;;;;;;;;;;5072871;28;20384;-63
2024/02/12 11:43:47;;;;;;;11.48;5.45;;;;;;;;;;5069918;28;20025;-63
2024/02/12 11:46:15;;;;;;;13.90;5.43;;;;;;;;;;5069151;28;20033;-63
2024/02/12 11:48:41;;;;;;;11.75;5.38;;;;;;;;;;5072503;28;20025;-62
2024/02/12 11:51:09;;;;;;;10.70;5.20;;;;;;;;;;5071486;28;20025;-63
2024/02/12 11:53:41;;;;;;;9.63;4.95;;;;;;;;;;5071349;28;20017;-62
2024/02/12 11:56:07;;;;;;;10.50;5.03;;;;;;;;;;5068779;28;20024;-62
2024/02/12 11:58:33;;;;;;;9.40;5.07;;;;;;;;;;5070925;28;20028;-63
2024/02/12 12:01:00;;;;;;;11.70;5.57;;;;;;;;;;5064993;28;20024;-63
2024/02/12 12:03:26;;;;;;;8.82;5.10;;;;;;;;;;5074144;28;20013;-62
2024/02/12 12:05:54;;;;;;;14.38;5.45;;;;;;;;;;5079968;28;20032;-62
2024/02/12 12:08:25;;;;;;;14.82;5.93;;;;;;;;;;5068800;28;20099;-62
2024/02/12 12:10:51;;;;;;;13.55;5.43;;;;;;;;;;5077966;28;20074;-62
2024/02/12 12:13:20;;;;;;;11.02;5.30;;;;;;;;;;5070290;28;20040;-62
2024/02/12 12:15:46;;;;;;;13.30;5.60;;;;;;;;;;5071920;28;20083;-63
2024/02/12 12:18:12;;;;;;;12.15;6.15;;;;;;;;;;5064090;28;20036;-63
2024/02/12 12:20:39;;;;;;;13.25;5.43;;;;;;;;;;5071163;28;20108;-64
2024/02/12 12:23:09;;;;;;;8.63;4.30;;;;;;;;;;5070841;28;20032;-63
2024/02/12 12:25:36;;;;;;;9.43;4.30;;;;;;;;;;5063430;28;20051;-64
2024/02/12 12:28:05;;;;;;;6.65;3.70;;;;;;;;;;5071407;28;20032;-60
2024/02/12 12:30:32;;;;;;;6.88;3.70;;;;;;;;;;5071172;28;20174;-60
2024/02/12 12:32:58;;;;;;;6.63;4.00;;;;;;;;;;5072661;28;20043;-60
2024/02/12 12:35:25;;;;;;;10.85;4.10;;;;;;;;;;5072596;28;20442;-60
2024/02/12 12:37:52;;;;;;;6.22;3.88;;;;;;;;;;5075060;28;20472;-60
2024/02/12 12:40:25;;;;;;;6.50;4.20;;;;;;;;;;5074907;28;20548;-60
2024/02/12 12:42:53;;;;;;;10.43;4.90;;;;;;;;;;5074921;28;20043;-60
2024/02/12 12:45:20;;;;;;;10.02;3.90;;;;;;;;;;5074829;28;20032;-60
2024/02/12 12:47:46;;;;;;;8.73;4.53;;;;;;;;;;5074541;28;20031;-59
2024/02/12 12:50:13;;;;;;;11.45;4.70;;;;;;;;;;5074480;28;20111;-60
2024/02/12 12:52:40;;;;;;;9.77;4.38;;;;;;;;;;5074906;28;20049;-60
2024/02/12 12:55:18;;;;;;;9.00;4.32;;;;;;;;;;5074555;28;20032;-60
2024/02/12 12:57:44;;;;;;;8.55;4.68;;;;;;;;;;5074564;28;20107;-60
2024/02/12 13:00:18;;;;;;;6.90;3.72;;;;;;;;;;5074540;28;20342;-60
2024/02/12 13:02:46;;;;;;;7.72;3.88;;;;;;;;;;5072892;28;20056;-60
2024/02/12 13:05:12;;;;;;;5.07;3.22;;;;;;;;;;5074314;28;20029;-60
2024/02/12 13:07:38;;;;;;;10.38;3.30;;;;;;;;;;5074558;28;20039;-60
2024/02/12 13:10:06;;;;;;;5.93;3.20;;;;;;;;;;5073528;28;20029;-61
2024/02/12 13:12:32;;;;;;;6.90;2.92;;;;;;;;;;5074381;28;20032;-59
2024/02/12 13:14:58;;;;;;;6.90;1.90;;;;;;;;;;5073525;28;20035;-60
2024/02/12 13:17:24;;;;;;;4.03;2.33;;;;;;;;;;5073576;28;20040;-60
2024/02/12 13:19:50;;;;;;;6.20;2.08;;;;;;;;;;5076102;28;20060;-59
2024/02/12 13:22:17;;;;;;;3.38;2.13;;;;;;;;;;5074139;28;20387;-59
2024/02/12 13:24:43;;;;;;;3.08;1.77;;;;;;;;;;5073498;28;20059;-60
2024/02/12 13:27:12;;;;;;;5.90;2.63;;;;;;;;;;5073046;28;20488;-59
2024/02/12 13:29:38;;;;;;;3.75;2.30;;;;;;;;;;5073646;28;20028;-60
2024/02/12 13:32:06;;;;;;;4.57;2.10;;;;;;;;;;5073939;28;20540;-60
2024/02/12 13:34:32;;;;;;;3.65;2.20;;;;;;;;;;5073768;28;20476;-60
2024/02/12 13:36:58;;;;;;;3.28;2.08;;;;;;;;;;5075358;28;20132;-59
2024/02/12 13:39:27;;;;;;;8.18;2.88;;;;;;;;;;5073701;28;20472;-58
2024/02/12 13:41:53;;;;;;;5.10;2.33;;;;;;;;;;5079301;28;20028;-58
2024/02/12 13:44:19;;;;;;;2.85;2.00;;;;;;;;;;5079006;28;20119;-58
2024/02/12 13:46:46;;;;;;;3.42;1.80;;;;;;;;;;5084215;28;20099;-59
2024/02/12 13:49:12;;;;;;;6.45;2.45;;;;;;;;;;5073489;28;20400;-59
2024/02/12 13:51:39;;;;;;;4.72;1.60;;;;;;;;;;5071277;28;20024;-58
2024/02/12 13:54:08;;;;;;;2.65;1.80;;;;;;;;;;5073519;28;20051;-60
2024/02/12 13:56:35;;;;;;;3.70;1.95;;;;;;;;;;5076219;28;20059;-58
2024/02/12 13:59:01;;;;;;;3.58;1.90;;;;;;;;;;5073578;28;20033;-59
2024/02/12 14:01:30;;;;;;;4.07;2.03;;;;;;;;;;5072112;28;20028;-58
2024/02/12 14:03:56;;;;;;;5.97;2.00;;;;;;;;;;5073479;28;20111;-59
2024/02/12 14:06:22;;;;;;;4.70;2.30;;;;;;;;;;5072485;28;20418;-59
2024/02/12 14:08:48;;;;;;;4.50;2.05;;;;;;;;;;5073513;28;20020;-58
2024/02/12 14:11:15;;;;;;;3.45;1.60;;;;;;;;;;5072600;28;20024;-58
2024/02/12 14:13:43;;;;;;;5.22;2.08;;;;;;;;;;5075218;28;20032;-58
2024/02/12 14:16:10;;;;;;;4.13;2.20;;;;;;;;;;5076785;28;20049;-58
2024/02/12 14:18:36;;;;;;;4.43;2.15;;;;;;;;;;5072988;28;20107;-58
2024/02/12 14:21:02;;;;;;;3.33;2.17;;;;;;;;;;5072760;28;20051;-58
2024/02/12 14:23:30;;;;;;;4.88;2.78;;;;;;;;;;5074908;28;20414;-58
2024/02/12 14:25:56;;;;;;;3.65;2.17;;;;;;;;;;5073053;28;20028;-58
2024/02/12 14:28:22;;;;;;;4.22;1.98;;;;;;;;;;5073256;28;20020;-58
2024/02/12 14:30:48;;;;;;;3.60;1.95;;;;;;;;;;5072986;28;20480;-58
2024/02/12 14:33:15;;;;;;;3.80;1.70;;;;;;;;;;5072777;28;20025;-59
2024/02/12 14:35:46;;;;;;;4.18;2.08;;;;;;;;;;5072750;28;20038;-58
2024/02/12 14:38:12;;;;;;;5.15;2.58;;;;;;;;;;5072901;28;20070;-58
2024/02/12 14:40:38;;;;;;;3.60;2.08;;;;;;;;;;5072618;28;20527;-58
2024/02/12 14:43:04;;;;;;;5.22;2.20;;;;;;;;;;5072959;28;20054;-58
2024/02/12 14:45:30;;;;;;;5.53;2.60;;;;;;;;;;5072111;28;20033;-58